Sedgewickville, Missouri
Current Conditions -  °F | °C
As of 6:32 AM on Friday 24 Oct 2014 (Local Time) from KCGI Reporting Station
Broken Clouds Broken Clouds  
Wind Chill: 48°   Ceiling: 2400
Heat Index: 48°   Visibility: 10mi
Dew Point: 46°   Wind: 0mph
Humidity: 93%   Direction: NA
Pressure: 30.13"   Gusts: NA
Location:  37.52°N, 89.91°W
Report Text: KCGI 241132Z AUTO 00000KT 10SM BKN024 BKN065 09/08 A3013 RMK AO2 TSNO
Loading
Personal Weather Stations






























Interactive Weather Map
Tropical Storm Tracking
New forecast layout! Learn more

10-Day Weather Forecast

Advertisements
Track Severe Weather on mobile